.
WxDataArchive / Data Records for 2015-05-16
2015-05-15 May 2015 2015-05-17

Data Records for Saturday, 16 May 2015

Time	Temp	Chill	HIndex	Humid	Dewpt	 Wind 	HiWind	WindDir	Rain 	Barom
-----	----	-----	------	-----	-----	------	------	-------	-----	-----
00:00	72.0	72.0	72.0	70	61.7	0	2	315	0.00	29.981 
00:05	71.8	71.8	71.8	70	61.5	0	1	315	0.00	29.981 
00:10	71.6	71.6	71.6	71	61.7	0	0	---	0.00	29.981 
00:15	71.5	71.5	71.5	71	61.6	0	0	---	0.00	29.977 
00:20	71.3	71.3	71.3	72	61.8	0	1	315	0.00	29.977 
00:25	71.1	71.1	71.1	72	61.6	0	1	315	0.00	29.977 
00:30	70.9	70.9	70.9	73	61.8	0	2	315	0.00	29.985 
00:35	70.9	70.9	70.9	73	61.8	0	3	315	0.00	29.985 
00:40	70.9	70.9	70.9	73	61.8	0	1	315	0.00	29.985 
00:45	70.9	70.9	70.9	73	61.8	0	1	315	0.00	29.984 
00:50	70.8	70.8	70.8	73	61.7	0	1	315	0.00	29.984 
00:55	70.6	70.6	70.6	73	61.5	0	1	315	0.00	29.984 
01:00	70.6	70.6	70.6	74	61.9	0	1	315	0.00	29.991 
01:05	70.4	70.4	70.4	74	61.7	0	0	---	0.00	29.991 
01:10	70.3	70.3	70.3	74	61.6	0	3	315	0.00	29.991 
01:15	70.3	70.3	70.3	74	61.6	0	0	---	0.00	29.994 
01:20	70.3	70.3	70.3	74	61.6	0	1	315	0.00	29.994 
01:25	70.3	70.3	70.3	74	61.6	0	1	315	0.00	29.994 
01:30	70.1	70.1	70.1	74	61.4	0	1	315	0.00	29.994 
01:35	70.1	70.1	70.1	74	61.4	0	1	315	0.00	29.994 
01:40	69.9	69.9	69.9	75	61.6	0	1	315	0.00	29.994 
01:45	69.9	69.9	69.9	75	61.6	0	1	315	0.00	29.994 
01:50	69.8	69.8	69.8	75	61.5	0	3	315	0.00	29.994 
01:55	69.6	69.6	69.6	76	61.7	0	2	315	0.00	29.994 
02:00	69.6	69.6	69.6	76	61.7	0	1	315	0.00	29.997 
02:05	69.4	69.4	69.4	76	61.5	0	2	315	0.00	29.997 
02:10	69.4	69.4	69.4	76	61.5	0	2	315	0.00	29.997 
02:15	69.3	69.3	69.3	76	61.4	0	2	315	0.00	29.998 
02:20	69.1	69.1	69.1	76	61.2	0	2	315	0.00	29.998 
02:25	69.1	69.1	69.1	76	61.2	0	2	315	0.00	29.998 
02:30	68.9	68.9	68.9	77	61.4	0	2	315	0.00	29.997 
02:35	68.9	68.9	68.9	77	61.4	0	2	315	0.00	29.997 
02:40	68.9	68.9	68.9	77	61.4	0	3	315	0.00	29.997 
02:45	68.9	68.9	68.9	77	61.4	0	1	315	0.00	29.990 
02:50	68.9	68.9	68.9	77	61.4	0	1	315	0.00	29.990 
02:55	68.9	68.9	68.9	77	61.4	0	1	315	0.00	29.990 
03:00	68.8	68.8	68.8	77	61.3	0	1	315	0.00	29.981 
03:05	68.8	68.8	68.8	77	61.3	0	1	315	0.00	29.981 
03:10	68.9	68.9	68.9	77	61.4	0	1	315	0.00	29.981 
03:15	68.9	68.9	68.9	77	61.4	0	2	315	0.00	29.978 
03:20	68.8	68.8	68.8	77	61.3	0	0	---	0.00	29.978 
03:25	68.8	68.8	68.8	77	61.3	0	2	315	0.00	29.978 
03:30	68.6	68.6	68.6	77	61.1	0	0	---	0.00	29.972 
03:35	68.4	68.4	68.4	78	61.3	0	0	---	0.00	29.972 
03:40	68.4	68.4	68.4	78	61.3	0	0	---	0.00	29.972 
03:45	68.3	68.3	68.3	78	61.2	0	0	---	0.00	29.976 
03:50	68.1	68.1	68.1	79	61.3	0	0	---	0.00	29.976 
03:55	68.1	68.1	68.1	79	61.3	0	0	---	0.00	29.976 
04:00	68.1	68.1	68.1	79	61.3	0	1	315	0.00	29.984 
04:05	68.1	68.1	68.1	79	61.3	0	1	315	0.00	29.984 
04:10	68.1	68.1	68.1	79	61.3	0	0	---	0.00	29.984 
04:15	67.9	67.9	67.9	80	61.5	0	1	315	0.00	29.992 
04:20	67.8	67.8	67.8	80	61.4	0	1	315	0.00	29.992 
04:25	67.8	67.8	67.8	80	61.4	0	1	315	0.00	29.992 
04:30	67.8	67.8	67.8	81	61.7	0	1	315	0.00	29.983 
04:35	67.6	67.6	67.6	81	61.6	0	3	315	0.00	29.983 
04:40	67.6	67.6	67.6	81	61.6	0	2	315	0.00	29.983 
04:45	67.6	67.6	67.6	81	61.6	0	1	315	0.00	29.982 
04:50	67.6	67.6	67.6	81	61.6	0	2	315	0.00	29.982 
04:55	67.6	67.6	67.6	81	61.6	0	2	315	0.00	29.982 
05:00	67.6	67.6	67.6	81	61.6	0	4	315	0.00	29.986 
05:05	67.6	67.6	67.6	81	61.6	0	3	315	0.00	29.986 
05:10	67.6	67.6	67.6	81	61.6	1	4	315	0.00	29.986 
05:15	67.6	67.6	67.6	81	61.6	0	2	315	0.00	29.990 
05:20	67.4	67.4	67.4	82	61.7	0	3	315	0.00	29.990 
05:25	67.4	67.4	67.4	82	61.7	1	4	315	0.00	29.990 
05:30	67.4	67.4	67.4	83	62.0	1	4	315	0.00	29.990 
05:35	67.1	67.1	67.1	84	62.1	1	4	292	0.01	29.990 
05:40	66.6	66.6	66.6	85	61.9	2	3	292	0.00	29.990 
05:45	66.3	66.3	66.3	87	62.3	2	4	292	0.01	29.992 
05:50	66.0	66.0	66.0	88	62.3	2	4	292	0.00	29.992 
05:55	65.8	65.8	65.8	88	62.1	1	3	292	0.00	29.992 
06:00	65.6	65.6	65.6	89	62.3	1	4	292	0.00	29.994 
06:05	65.5	65.5	65.5	89	62.2	1	3	292	0.00	29.994 
06:10	65.5	65.5	65.5	90	62.5	0	2	292	0.00	29.994 
06:15	65.3	65.3	65.3	90	62.3	0	1	292	0.00	29.998 
06:20	65.3	65.3	65.3	90	62.3	0	1	292	0.00	29.998 
06:25	65.2	65.2	65.2	90	62.2	0	1	292	0.00	29.998 
06:30	65.2	65.2	65.2	91	62.5	0	1	292	0.00	30.000 
06:35	65.2	65.2	65.2	91	62.5	0	1	292	0.00	30.000 
06:40	65.2	65.2	65.2	91	62.5	0	0	---	0.00	30.000 
06:45	65.2	65.2	65.2	91	62.5	0	0	---	0.00	30.011 
06:50	65.2	65.2	65.2	91	62.5	0	1	292	0.00	30.011 
06:55	65.0	65.0	65.0	91	62.3	0	0	---	0.00	30.011 
07:00	65.0	65.0	65.0	92	62.6	0	0	---	0.00	30.013 
07:05	65.0	65.0	65.0	92	62.6	0	0	---	0.00	30.013 
07:10	65.0	65.0	65.0	92	62.6	0	0	---	0.00	30.013 
07:15	65.0	65.0	65.0	92	62.6	0	0	---	0.00	30.017 
07:20	65.0	65.0	65.0	92	62.6	0	0	---	0.00	30.017 
07:25	65.0	65.0	65.0	92	62.6	0	0	---	0.00	30.017 
07:30	65.2	65.2	65.2	92	62.8	0	0	---	0.00	30.027 
07:35	65.2	65.2	65.2	92	62.8	0	0	---	0.01	30.027 
07:40	65.2	65.2	65.2	92	62.8	0	0	---	0.01	30.027 
07:45	65.2	65.2	65.2	92	62.8	0	0	---	0.01	30.032 
07:50	65.3	65.3	65.3	92	62.9	0	0	---	0.02	30.032 
07:55	65.3	65.3	65.3	92	62.9	0	0	---	0.00	30.032 
08:00	65.3	65.3	65.3	93	63.2	0	1	292	0.04	30.033 
08:05	65.3	65.3	65.3	93	63.2	0	0	---	0.01	30.033 
08:10	65.3	65.3	65.3	93	63.2	0	0	---	0.00	30.033 
08:15	65.3	65.3	65.3	93	63.2	0	0	---	0.00	30.036 
08:20	65.3	65.3	65.3	93	63.2	0	0	---	0.00	30.036 
08:25	65.5	65.5	65.5	93	63.4	0	0	---	0.00	30.036 
08:30	65.5	65.5	65.5	93	63.4	0	0	---	0.00	30.036 
08:35	65.5	65.5	65.5	93	63.4	0	0	---	0.00	30.036 
08:40	65.6	65.6	65.6	94	63.8	0	0	---	0.00	30.036 
08:45	66.0	66.0	66.0	94	64.2	0	0	---	0.00	30.044 
08:50	66.1	66.1	66.1	94	64.3	0	0	---	0.00	30.044 
08:55	66.3	66.3	66.3	94	64.5	0	1	292	0.00	30.044 
09:00	66.3	66.3	66.3	94	64.5	0	2	292	0.00	30.045 
09:05	66.4	66.4	66.4	94	64.6	0	0	---	0.00	30.045 
09:10	66.6	66.6	66.6	94	64.8	0	0	---	0.00	30.045 
09:15	66.6	66.6	66.6	94	64.8	0	0	---	0.00	30.045 
09:20	66.6	66.6	66.6	94	64.8	0	1	292	0.00	30.045 
09:25	66.6	66.6	66.6	94	64.8	0	1	292	0.00	30.045 
09:30	66.6	66.6	66.6	93	64.5	0	0	---	0.00	30.047 
09:35	66.6	66.6	66.6	94	64.8	0	0	---	0.00	30.047 
09:40	66.6	66.6	66.6	93	64.5	0	0	---	0.00	30.047 
09:45	66.8	66.8	66.8	94	65.0	0	0	---	0.00	30.049 
09:50	66.8	66.8	66.8	94	65.0	0	1	292	0.00	30.049 
09:55	66.9	66.9	66.9	93	64.8	0	0	---	0.00	30.049 
10:00	66.9	66.9	66.9	93	64.8	0	0	---	0.00	30.048 
10:05	67.1	67.1	67.1	93	65.0	0	0	---	0.00	30.048 
10:10	67.3	67.3	67.3	93	65.2	0	0	---	0.00	30.048 
10:15	67.4	67.4	67.4	93	65.3	0	1	292	0.00	30.047 
10:20	67.6	67.6	67.6	93	65.5	0	1	292	0.00	30.047 
10:25	67.9	67.9	67.9	93	65.8	0	0	---	0.00	30.047 
10:30	67.9	67.9	67.9	93	65.8	0	1	292	0.00	30.041 
10:35	67.9	67.9	67.9	93	65.8	0	1	292	0.00	30.041 
10:40	68.3	68.3	68.3	93	66.2	0	0	---	0.00	30.041 
10:45	68.4	68.4	68.4	92	66.0	0	0	---	0.00	30.042 
10:50	68.6	68.6	68.6	92	66.2	0	1	292	0.00	30.042 
10:55	68.4	68.4	68.4	92	66.0	0	2	292	0.00	30.042 
11:00	68.6	68.6	68.6	91	65.9	0	1	292	0.00	30.045 
11:05	68.6	68.6	68.6	91	65.9	0	2	292	0.00	30.045 
11:10	68.9	68.9	68.9	91	66.2	0	1	292	0.00	30.045 
11:15	69.1	69.1	69.1	90	66.0	0	1	292	0.00	30.048 
11:20	69.1	69.1	69.1	89	65.7	0	1	292	0.00	30.048 
11:25	69.3	69.3	69.3	89	65.9	0	1	292	0.00	30.048 
11:30	69.4	69.4	69.4	89	66.0	0	1	292	0.00	30.047 
11:35	69.8	69.8	69.8	89	66.4	0	0	---	0.00	30.047 
11:40	69.9	69.9	69.9	88	66.2	0	1	292	0.00	30.047 
11:45	70.3	70.3	70.3	88	66.6	0	1	292	0.00	30.044 
11:50	70.8	70.8	70.8	88	67.1	0	1	292	0.00	30.044 
11:55	71.1	71.1	71.1	86	66.7	0	2	292	0.00	30.044 
12:00	71.1	71.1	71.1	85	66.4	0	2	292	0.00	30.045 
12:05	71.1	71.1	71.1	84	66.0	0	1	292	0.00	30.045 
12:10	70.8	70.8	70.8	84	65.7	0	1	292	0.00	30.045 
12:15	70.8	70.8	70.8	84	65.7	0	2	292	0.00	30.043 
12:20	70.9	70.9	70.9	85	66.2	0	1	292	0.00	30.043 
12:25	71.3	71.3	71.3	84	66.2	0	1	292	0.00	30.043 
12:30	71.5	71.5	71.5	84	66.4	0	1	292	0.00	30.041 
12:35	71.6	71.6	71.6	83	66.2	0	2	292	0.00	30.041 
12:40	71.8	71.8	71.8	83	66.3	0	1	292	0.00	30.041 
12:45	71.8	71.8	71.8	82	66.0	0	3	315	0.00	30.044 
12:50	71.8	71.8	71.8	83	66.3	0	1	315	0.00	30.044 
12:55	72.0	72.0	72.0	83	66.5	0	1	315	0.00	30.044 
13:00	72.1	72.1	72.1	82	66.3	0	1	315	0.00	30.043 
13:05	72.1	72.1	72.1	82	66.3	0	2	315	0.00	30.043 
13:10	72.0	72.0	72.0	81	65.8	0	1	315	0.00	30.043 
13:15	72.0	72.0	72.0	82	66.2	0	1	315	0.00	30.039 
13:20	72.0	72.0	72.0	82	66.2	0	2	315	0.00	30.039 
13:25	71.6	71.6	71.6	82	65.8	0	1	315	0.00	30.039 
13:30	71.5	71.5	71.5	82	65.7	0	1	315	0.00	30.040 
13:35	71.3	71.3	71.3	83	65.9	0	1	90	0.00	30.040 
13:40	71.3	71.3	71.3	84	66.2	0	1	90	0.00	30.040 
13:45	71.5	71.5	71.5	84	66.4	0	1	90	0.00	30.037 
13:50	71.6	71.6	71.6	84	66.5	0	2	90	0.00	30.037 
13:55	71.8	71.8	71.8	83	66.3	0	2	90	0.00	30.037 
14:00	71.6	71.6	71.6	84	66.5	0	1	90	0.00	30.034 
14:05	71.5	71.5	71.5	84	66.4	0	1	90	0.00	30.034 
14:10	71.5	71.5	71.5	84	66.4	0	2	90	0.00	30.034 
14:15	71.3	71.3	71.3	85	66.5	0	1	68	0.00	30.033 
14:20	71.1	71.1	71.1	85	66.4	0	2	68	0.00	30.033 
14:25	71.3	71.3	71.3	86	66.9	0	1	68	0.00	30.033 
14:30	71.1	71.1	71.1	86	66.7	0	3	68	0.00	30.032 
14:35	71.3	71.3	71.3	86	66.9	0	2	68	0.00	30.032 
14:40	71.8	71.8	71.8	86	67.4	0	2	68	0.00	30.032 
14:45	72.5	72.5	72.5	85	67.7	0	1	68	0.00	30.029 
14:50	72.8	72.8	72.8	83	67.3	0	2	68	0.00	30.029 
14:55	72.5	72.5	72.5	83	67.0	1	3	68	0.00	30.029 
15:00	72.1	72.1	72.1	84	67.0	0	2	68	0.00	30.029 
15:05	71.5	71.5	71.5	84	66.4	1	3	68	0.00	30.029 
15:10	71.1	71.1	71.1	86	66.7	0	2	68	0.00	30.029 
15:15	70.9	70.9	70.9	86	66.5	0	1	68	0.00	30.030 
15:20	70.9	70.9	70.9	87	66.8	0	0	---	0.00	30.030 
15:25	71.1	71.1	71.1	87	67.0	0	1	68	0.00	30.030 
15:30	71.5	71.5	71.5	86	67.1	0	1	68	0.00	30.023 
15:35	71.5	71.5	71.5	85	66.7	0	2	68	0.00	30.023 
15:40	71.5	71.5	71.5	85	66.7	0	1	338	0.00	30.023 
15:45	71.6	71.6	71.6	86	67.2	0	2	338	0.00	30.021 
15:50	72.0	72.0	72.0	86	67.6	0	1	22	0.00	30.021 
15:55	72.5	72.5	72.5	85	67.7	0	3	22	0.00	30.021 
16:00	73.0	73.0	73.0	84	67.9	0	3	22	0.00	30.016 
16:05	73.5	73.5	73.5	83	68.0	0	3	22	0.00	30.016 
16:10	73.9	73.9	73.9	81	67.7	0	2	45	0.00	30.016 
16:15	74.0	74.0	74.0	80	67.4	0	2	22	0.00	30.011 
16:20	74.4	74.4	74.4	81	68.2	0	2	22	0.00	30.011 
16:25	74.6	74.6	74.6	79	67.6	0	3	22	0.00	30.011 
16:30	74.6	74.6	74.6	79	67.6	0	2	45	0.00	30.007 
16:35	74.6	74.6	74.6	79	67.6	0	2	45	0.00	30.007 
16:40	74.7	74.7	74.7	79	67.7	0	2	45	0.00	30.007 
16:45	74.9	74.9	74.9	78	67.6	0	1	45	0.00	30.002 
16:50	74.9	74.9	74.9	78	67.6	0	1	45	0.00	30.002 
16:55	74.9	74.9	74.9	78	67.6	0	3	45	0.00	30.002 
17:00	74.9	74.9	74.9	78	67.6	0	2	45	0.00	30.005 
17:05	74.9	74.9	74.9	78	67.6	0	1	45	0.00	30.005 
17:10	74.9	74.9	74.9	77	67.2	0	2	22	0.00	30.005 
17:15	74.7	74.7	74.7	78	67.4	0	3	22	0.00	30.003 
17:20	74.7	74.7	74.7	78	67.4	0	2	22	0.00	30.003 
17:25	74.7	74.7	74.7	78	67.4	0	0	---	0.00	30.003 
17:30	74.4	74.4	74.4	78	67.1	0	0	---	0.00	30.004 
17:35	74.4	74.4	74.4	78	67.1	0	0	---	0.00	30.004 
17:40	74.2	74.2	74.2	79	67.3	0	0	---	0.00	30.004 
17:45	74.0	74.0	74.0	79	67.1	0	0	---	0.00	30.008 
17:50	74.0	74.0	74.0	79	67.1	0	1	0	0.00	30.008 
17:55	73.9	73.9	73.9	79	67.0	0	4	0	0.00	30.008 
18:00	73.9	73.9	73.9	78	66.6	0	2	45	0.00	30.013 
18:05	73.9	73.9	73.9	78	66.6	0	3	90	0.00	30.013 
18:10	73.9	73.9	73.9	78	66.6	0	2	90	0.00	30.013 
18:15	73.7	73.7	73.7	78	66.4	0	3	90	0.00	30.014 
18:20	73.7	73.7	73.7	79	66.8	0	2	90	0.00	30.014 
18:25	73.5	73.5	73.5	79	66.6	0	1	90	0.00	30.014 
18:30	73.5	73.5	73.5	79	66.6	0	2	90	0.00	30.017 
18:35	73.3	73.3	73.3	79	66.4	0	1	90	0.00	30.017 
18:40	73.3	73.3	73.3	79	66.4	0	1	90	0.00	30.017 
18:45	73.3	73.3	73.3	80	66.7	0	1	90	0.00	30.013 
18:50	73.3	73.3	73.3	80	66.7	0	1	90	0.00	30.013 
18:55	73.2	73.2	73.2	80	66.6	0	0	---	0.00	30.013 
19:00	73.2	73.2	73.2	80	66.6	0	1	90	0.00	30.014 
19:05	73.2	73.2	73.2	80	66.6	0	1	90	0.00	30.014 
19:10	73.0	73.0	73.0	80	66.5	0	1	90	0.00	30.014 
19:15	73.0	73.0	73.0	80	66.5	0	1	90	0.00	30.014 
19:20	72.8	72.8	72.8	80	66.3	0	1	90	0.00	30.014 
19:25	72.8	72.8	72.8	80	66.3	0	1	90	0.00	30.014 
19:30	72.8	72.8	72.8	80	66.3	0	1	90	0.00	30.014 
19:35	72.7	72.7	72.7	80	66.2	0	1	90	0.00	30.014 
19:40	72.5	72.5	72.5	80	66.0	0	1	90	0.00	30.014 
19:45	72.3	72.3	72.3	81	66.1	0	0	---	0.00	30.012 
19:50	72.3	72.3	72.3	81	66.1	0	1	90	0.00	30.012 
19:55	72.1	72.1	72.1	81	65.9	0	0	---	0.00	30.012 
20:00	72.1	72.1	72.1	82	66.3	0	0	---	0.00	30.014 
20:05	72.0	72.0	72.0	82	66.2	0	0	---	0.00	30.014 
20:10	72.0	72.0	72.0	82	66.2	0	0	---	0.00	30.014 
20:15	71.8	71.8	71.8	82	66.0	0	0	---	0.00	30.014 
20:20	71.6	71.6	71.6	82	65.8	0	0	---	0.00	30.014 
20:25	71.6	71.6	71.6	82	65.8	0	0	---	0.00	30.014 
20:30	71.5	71.5	71.5	83	66.1	0	0	---	0.00	30.013 
20:35	71.3	71.3	71.3	83	65.9	0	0	---	0.00	30.013 
20:40	71.1	71.1	71.1	83	65.7	0	0	---	0.00	30.013 
20:45	71.1	71.1	71.1	83	65.7	0	0	---	0.00	30.016 
20:50	70.9	70.9	70.9	84	65.8	0	0	---	0.00	30.016 
20:55	70.8	70.8	70.8	84	65.7	0	0	---	0.00	30.016 
21:00	70.6	70.6	70.6	84	65.5	0	0	---	0.00	30.019 
21:05	70.4	70.4	70.4	84	65.3	0	0	---	0.00	30.019 
21:10	70.3	70.3	70.3	85	65.6	0	0	---	0.00	30.019 
21:15	70.1	70.1	70.1	85	65.4	0	0	---	0.00	30.021 
21:20	70.1	70.1	70.1	86	65.7	0	1	90	0.00	30.021 
21:25	69.9	69.9	69.9	86	65.5	0	2	90	0.00	30.021 
21:30	69.9	69.9	69.9	87	65.8	0	2	90	0.00	30.024 
21:35	69.9	69.9	69.9	87	65.8	0	1	90	0.00	30.024 
21:40	69.9	69.9	69.9	87	65.8	0	0	---	0.00	30.024 
21:45	69.8	69.8	69.8	87	65.7	0	1	90	0.00	30.032 
21:50	69.8	69.8	69.8	87	65.7	0	1	90	0.00	30.032 
21:55	69.6	69.6	69.6	88	65.9	0	1	90	0.00	30.032 
22:00	69.4	69.4	69.4	88	65.7	0	0	---	0.00	30.036 
22:05	69.3	69.3	69.3	88	65.6	0	0	---	0.00	30.036 
22:10	69.1	69.1	69.1	88	65.4	0	0	---	0.00	30.036 
22:15	68.9	68.9	68.9	88	65.2	0	0	---	0.00	30.036 
22:20	68.8	68.8	68.8	88	65.1	0	0	---	0.00	30.036 
22:25	68.6	68.6	68.6	89	65.2	0	0	---	0.00	30.036 
22:30	68.6	68.6	68.6	89	65.2	0	1	90	0.00	30.043 
22:35	68.4	68.4	68.4	89	65.0	0	0	---	0.00	30.043 
22:40	68.3	68.3	68.3	89	64.9	0	2	90	0.00	30.043 
22:45	68.3	68.3	68.3	89	64.9	0	2	90	0.00	30.046 
22:50	68.1	68.1	68.1	90	65.0	0	0	---	0.00	30.046 
22:55	67.9	67.9	67.9	90	64.9	0	0	---	0.00	30.046 
23:00	67.8	67.8	67.8	90	64.8	0	0	---	0.00	30.050 
23:05	67.6	67.6	67.6	90	64.6	0	0	---	0.00	30.050 
23:10	67.4	67.4	67.4	90	64.4	0	0	---	0.00	30.050 
23:15	67.3	67.3	67.3	90	64.3	0	0	---	0.00	30.046 
23:20	67.1	67.1	67.1	91	64.4	0	1	90	0.00	30.046 
23:25	67.1	67.1	67.1	91	64.4	0	0	---	0.00	30.046 
23:30	66.9	66.9	66.9	91	64.2	0	0	---	0.00	30.043 
23:35	66.8	66.8	66.8	91	64.1	0	0	---	0.00	30.043 
23:40	66.8	66.8	66.8	91	64.1	0	0	---	0.00	30.043 
23:45	66.6	66.6	66.6	91	63.9	0	0	---	0.00	30.039 
23:50	66.4	66.4	66.4	91	63.7	0	0	---	0.00	30.039 
23:55	66.4	66.4	66.4	92	64.0	0	0	---	0.00	30.039 

CoCoRaHS
IN-AL-39
A2 Web Hosting
Creative Commons License
GoDaddy
search engine by freefind advanced

loaded 2018-11-15 18:56:27 • last modified 2010-11-18 10:43:29
Privacy PolicyDisclaimer
• wx.awcolley.com is powered by PmWiki v.2002016 •
• all content (unless otherwise noted) © 2018 A W Colley